Pagina principale
METAR-TAF:

METAR-TAF

Aeroporti :

Jijel, Algeria

latitudine: 36-53N, longitudine: 005-49E, altezza: 2 m

Osservazione

Il bollettino è stato emesso 37 minuti fa, alle 17:00 UTC
Vento 2 kt da direzioni variabili
Temperature 12°C
Umidità 62%
Pressione 1024 hPa
Visibilità 10 km o più
Poco nuvoloso ad un'altezza di 2000 ft

METAR: DAAV 201700Z VRB02KT 9999 FEW020 12/05 Q1024

Ora: 18:37 (17:37 UTC)

Previsione

Il bollettino è stato emesso 37 minuti fa, alle 17:00 UTC
Previsione valida dal 20 alle 18 UTC al 21 alle 18 UTC
Vento 6 kt da sud-est
Visibilità 10 km o più
Poco nuvoloso ad un'altezza di 2600 ft
Evoluzione graduale
dal 21 alle 09 UTC al 21 alle 11 UTC
Vento 8 kt da est
Visibilità 10 km o più
Nubi sparse ad un'altezza di 2600 ft

TAF: DAAV 201700Z 2018/2118 14006KT 9999 FEW026 BECMG 2109/2111 09008KT 9999 SCT026

Osservazioni e previsioni meteorologiche di più di 4000 aeroporti (messaggi METAR e TAF).

Le stazioni disponibili sono rappresentate dai dischi gialli e rossi sulla carta.

Puntare il mouse per vedere il nome della stazione.

Clicca sopra per visualizzare le osservazioni e previsioni meteorologiche.

Per cambiare la mappa : fare clic sui pulsanti verdi con una croce nera per ingrandire, il pulsante verde con un trattino per diminuire, o sulla freccia verde per le mappe adiacenti.


METAR-TAF: